Terminal Aerodrome Forecast
Issued by NWS

Home | Current Version | Previous Version | Text Only | Print | Product List | Glossary On
Versions: 1 2 3 4 5 6 7 8 9 10 11 12 13 14 15 16 17 18
214
FTUS43 KBIS 140528
TAFJMS
TAF
KJMS 140528Z 1406/1506 15019G28KT 1/2SM SN FZFG VV006
     FM140900 15016G24KT 1SM -SN BLSN OVC012
     FM141100 17013KT 3SM -SN OVC015
     FM141400 18009KT P6SM -SN OVC015
     FM141600 21008KT P6SM VCSH OVC015
     FM141800 28008KT P6SM BKN015
     FM150100 28009KT P6SM BKN035=

USA.gov is the U.S. government's official web portal to all federal, state and local government web resources and services.